sensor_id;sensor_type;location;lat;lon;timestamp;pressure;altitude;pressure_sealevel;temperature
74321;BMP280;62738;45.772;4.804;2023-06-10T00:01:38;99279.50;;;22.51
74321;BMP280;62738;45.772;4.804;2023-06-10T00:04:05;99270.41;;;22.55
74321;BMP280;62738;45.772;4.804;2023-06-10T00:06:32;99268.81;;;22.48
74321;BMP280;62738;45.772;4.804;2023-06-10T00:09:03;99274.94;;;22.40
74321;BMP280;62738;45.772;4.804;2023-06-10T00:11:32;99265.44;;;22.29
74321;BMP280;62738;45.772;4.804;2023-06-10T00:13:59;99270.31;;;22.27
74321;BMP280;62738;45.772;4.804;2023-06-10T00:16:26;99270.50;;;22.33
74321;BMP280;62738;45.772;4.804;2023-06-10T00:18:53;99273.22;;;22.29
74321;BMP280;62738;45.772;4.804;2023-06-10T00:21:22;99274.34;;;22.18
74321;BMP280;62738;45.772;4.804;2023-06-10T00:23:50;99267.84;;;22.13
74321;BMP280;62738;45.772;4.804;2023-06-10T00:26:17;99271.31;;;22.12
74321;BMP280;62738;45.772;4.804;2023-06-10T00:28:44;99263.56;;;22.12
74321;BMP280;62738;45.772;4.804;2023-06-10T00:31:11;99268.25;;;22.29
74321;BMP280;62738;45.772;4.804;2023-06-10T00:33:38;99271.53;;;22.43
74321;BMP280;62738;45.772;4.804;2023-06-10T00:36:05;99266.06;;;22.26
74321;BMP280;62738;45.772;4.804;2023-06-10T00:38:32;99255.09;;;22.12
74321;BMP280;62738;45.772;4.804;2023-06-10T00:40:58;99258.16;;;22.20
74321;BMP280;62738;45.772;4.804;2023-06-10T00:43:25;99255.31;;;22.20
74321;BMP280;62738;45.772;4.804;2023-06-10T00:45:52;99262.31;;;22.17
74321;BMP280;62738;45.772;4.804;2023-06-10T00:48:18;99260.59;;;22.32
74321;BMP280;62738;45.772;4.804;2023-06-10T00:50:46;99259.25;;;22.35
74321;BMP280;62738;45.772;4.804;2023-06-10T00:53:13;99260.03;;;22.37
74321;BMP280;62738;45.772;4.804;2023-06-10T00:55:43;99249.97;;;22.56
74321;BMP280;62738;45.772;4.804;2023-06-10T00:58:10;99256.44;;;22.35
74321;BMP280;62738;45.772;4.804;2023-06-10T01:00:37;99251.94;;;22.26
74321;BMP280;62738;45.772;4.804;2023-06-10T01:03:04;99245.78;;;22.33
74321;BMP280;62738;45.772;4.804;2023-06-10T01:05:35;99244.22;;;22.28
74321;BMP280;62738;45.772;4.804;2023-06-10T01:08:28;99248.66;;;22.10
74321;BMP280;62738;45.772;4.804;2023-06-10T01:11:01;99241.97;;;22.23
74321;BMP280;62738;45.772;4.804;2023-06-10T01:13:30;99251.31;;;22.29
74321;BMP280;62738;45.772;4.804;2023-06-10T01:15:59;99249.88;;;22.28
74321;BMP280;62738;45.772;4.804;2023-06-10T01:18:32;99246.78;;;22.18
74321;BMP280;62738;45.772;4.804;2023-06-10T01:20:58;99240.34;;;22.16
74321;BMP280;62738;45.772;4.804;2023-06-10T01:23:25;99241.56;;;22.09
74321;BMP280;62738;45.772;4.804;2023-06-10T01:26:02;99248.94;;;22.20
74321;BMP280;62738;45.772;4.804;2023-06-10T01:28:40;99256.47;;;22.11
74321;BMP280;62738;45.772;4.804;2023-06-10T01:33:45;99252.28;;;21.88
74321;BMP280;62738;45.772;4.804;2023-06-10T01:36:13;99257.88;;;21.86
74321;BMP280;62738;45.772;4.804;2023-06-10T01:38:45;99251.50;;;22.10
74321;BMP280;62738;45.772;4.804;2023-06-10T01:41:14;99261.25;;;22.30
74321;BMP280;62738;45.772;4.804;2023-06-10T01:43:43;99249.88;;;22.28
74321;BMP280;62738;45.772;4.804;2023-06-10T01:46:10;99250.53;;;22.25
74321;BMP280;62738;45.772;4.804;2023-06-10T01:48:38;99248.94;;;22.20
74321;BMP280;62738;45.772;4.804;2023-06-10T01:51:05;99249.19;;;22.04
74321;BMP280;62738;45.772;4.804;2023-06-10T01:53:32;99249.06;;;22.24
74321;BMP280;62738;45.772;4.804;2023-06-10T01:55:58;99243.78;;;22.12
74321;BMP280;62738;45.772;4.804;2023-06-10T01:58:26;99255.81;;;22.13
74321;BMP280;62738;45.772;4.804;2023-06-10T02:00:52;99252.91;;;22.11
74321;BMP280;62738;45.772;4.804;2023-06-10T02:03:19;99259.88;;;22.08
74321;BMP280;62738;45.772;4.804;2023-06-10T02:05:46;99251.53;;;22.12
74321;BMP280;62738;45.772;4.804;2023-06-10T02:08:13;99261.09;;;22.01
74321;BMP280;62738;45.772;4.804;2023-06-10T02:10:39;99252.75;;;22.05
74321;BMP280;62738;45.772;4.804;2023-06-10T02:13:07;99255.22;;;22.16
74321;BMP280;62738;45.772;4.804;2023-06-10T02:15:33;99258.03;;;22.16
74321;BMP280;62738;45.772;4.804;2023-06-10T02:18:00;99255.81;;;22.13
74321;BMP280;62738;45.772;4.804;2023-06-10T02:20:27;99261.84;;;22.27
74321;BMP280;62738;45.772;4.804;2023-06-10T02:22:53;99259.75;;;22.04
74321;BMP280;62738;45.772;4.804;2023-06-10T02:25:20;99266.63;;;21.96
74321;BMP280;62738;45.772;4.804;2023-06-10T02:27:47;99260.97;;;21.96
74321;BMP280;62738;45.772;4.804;2023-06-10T02:30:13;99268.69;;;21.94
74321;BMP280;62738;45.772;4.804;2023-06-10T02:32:40;99266.56;;;22.18
74321;BMP280;62738;45.772;4.804;2023-06-10T02:35:07;99261.22;;;22.05
74321;BMP280;62738;45.772;4.804;2023-06-10T02:37:34;99257.41;;;21.94
74321;BMP280;62738;45.772;4.804;2023-06-10T02:40:01;99256.88;;;22.02
74321;BMP280;62738;45.772;4.804;2023-06-10T02:42:28;99259.25;;;22.35
74321;BMP280;62738;45.772;4.804;2023-06-10T02:44:54;99254.00;;;22.23
74321;BMP280;62738;45.772;4.804;2023-06-10T02:47:21;99255.06;;;22.36
74321;BMP280;62738;45.772;4.804;2023-06-10T02:49:48;99257.59;;;22.26
74321;BMP280;62738;45.772;4.804;2023-06-10T02:52:14;99260.38;;;22.24
74321;BMP280;62738;45.772;4.804;2023-06-10T02:54:41;99264.75;;;22.29
74321;BMP280;62738;45.772;4.804;2023-06-10T02:57:08;99256.06;;;22.21
74321;BMP280;62738;45.772;4.804;2023-06-10T02:59:36;99245.59;;;22.02
74321;BMP280;62738;45.772;4.804;2023-06-10T03:02:03;99257.16;;;21.86
74321;BMP280;62738;45.772;4.804;2023-06-10T03:04:30;99249.06;;;22.00
74321;BMP280;62738;45.772;4.804;2023-06-10T03:06:57;99257.91;;;22.12
74321;BMP280;62738;45.772;4.804;2023-06-10T03:09:23;99253.72;;;22.13
74321;BMP280;62738;45.772;4.804;2023-06-10T03:11:50;99264.53;;;22.21
74321;BMP280;62738;45.772;4.804;2023-06-10T03:14:17;99265.50;;;22.06
74321;BMP280;62738;45.772;4.804;2023-06-10T03:16:43;99263.91;;;22.01
74321;BMP280;62738;45.772;4.804;2023-06-10T03:19:11;99256.28;;;21.81
74321;BMP280;62738;45.772;4.804;2023-06-10T03:21:38;99260.97;;;21.73
74321;BMP280;62738;45.772;4.804;2023-06-10T03:24:08;99260.75;;;21.88
74321;BMP280;62738;45.772;4.804;2023-06-10T03:26:34;99260.97;;;21.96
74321;BMP280;62738;45.772;4.804;2023-06-10T03:29:01;99259.28;;;21.87
74321;BMP280;62738;45.772;4.804;2023-06-10T03:31:28;99263.38;;;21.82
74321;BMP280;62738;45.772;4.804;2023-06-10T03:33:54;99266.00;;;21.76
74321;BMP280;62738;45.772;4.804;2023-06-10T03:36:21;99265.53;;;21.60
74321;BMP280;62738;45.772;4.804;2023-06-10T03:38:48;99282.28;;;21.54
74321;BMP280;62738;45.772;4.804;2023-06-10T03:41:17;99279.03;;;21.42
74321;BMP280;62738;45.772;4.804;2023-06-10T03:43:43;99275.16;;;21.31
74321;BMP280;62738;45.772;4.804;2023-06-10T03:46:11;99286.41;;;21.51
74321;BMP280;62738;45.772;4.804;2023-06-10T03:48:37;99281.03;;;21.59
74321;BMP280;62738;45.772;4.804;2023-06-10T03:51:05;99282.94;;;21.76
74321;BMP280;62738;45.772;4.804;2023-06-10T03:53:31;99281.63;;;21.79
74321;BMP280;62738;45.772;4.804;2023-06-10T03:55:58;99285.25;;;21.82
74321;BMP280;62738;45.772;4.804;2023-06-10T03:58:25;99287.00;;;21.93
74321;BMP280;62738;45.772;4.804;2023-06-10T04:00:52;99285.63;;;21.94
74321;BMP280;62738;45.772;4.804;2023-06-10T04:03:19;99288.47;;;21.72
74321;BMP280;62738;45.772;4.804;2023-06-10T04:05:47;99287.59;;;21.68
74321;BMP280;62738;45.772;4.804;2023-06-10T04:08:14;99290.44;;;21.68
74321;BMP280;62738;45.772;4.804;2023-06-10T04:10:41;99287.16;;;21.75
74321;BMP280;62738;45.772;4.804;2023-06-10T04:13:07;99294.13;;;21.72
74321;BMP280;62738;45.772;4.804;2023-06-10T04:15:35;99297.44;;;21.65
74321;BMP280;62738;45.772;4.804;2023-06-10T04:18:03;99286.59;;;21.57
74321;BMP280;62738;45.772;4.804;2023-06-10T04:20:29;99295.44;;;21.69
74321;BMP280;62738;45.772;4.804;2023-06-10T04:22:56;99299.28;;;21.80
74321;BMP280;62738;45.772;4.804;2023-06-10T04:25:23;99292.81;;;21.99
74321;BMP280;62738;45.772;4.804;2023-06-10T04:27:50;99293.91;;;22.12
74321;BMP280;62738;45.772;4.804;2023-06-10T04:30:17;99284.78;;;22.13
74321;BMP280;62738;45.772;4.804;2023-06-10T04:32:44;99292.59;;;22.15
74321;BMP280;62738;45.772;4.804;2023-06-10T04:35:12;99292.34;;;22.07
74321;BMP280;62738;45.772;4.804;2023-06-10T04:37:39;99290.09;;;22.25
74321;BMP280;62738;45.772;4.804;2023-06-10T04:40:08;99298.94;;;22.39
74321;BMP280;62738;45.772;4.804;2023-06-10T04:42:35;99292.19;;;22.26
74321;BMP280;62738;45.772;4.804;2023-06-10T04:45:02;99295.72;;;22.25
74321;BMP280;62738;45.772;4.804;2023-06-10T04:47:30;99304.84;;;22.00
74321;BMP280;62738;45.772;4.804;2023-06-10T04:50:01;99309.81;;;21.77
74321;BMP280;62738;45.772;4.804;2023-06-10T04:52:27;99304.72;;;21.95
74321;BMP280;62738;45.772;4.804;2023-06-10T04:54:54;99305.88;;;22.10
74321;BMP280;62738;45.772;4.804;2023-06-10T04:57:21;99303.09;;;22.36
74321;BMP280;62738;45.772;4.804;2023-06-10T04:59:48;99304.81;;;22.73
74321;BMP280;62738;45.772;4.804;2023-06-10T05:02:14;99301.66;;;22.86
74321;BMP280;62738;45.772;4.804;2023-06-10T05:04:41;99308.25;;;22.95
74321;BMP280;62738;45.772;4.804;2023-06-10T05:07:08;99307.19;;;23.08
74321;BMP280;62738;45.772;4.804;2023-06-10T05:09:35;99300.19;;;23.11
74321;BMP280;62738;45.772;4.804;2023-06-10T05:12:02;99296.13;;;23.20
74321;BMP280;62738;45.772;4.804;2023-06-10T05:14:29;99303.13;;;23.17
74321;BMP280;62738;45.772;4.804;2023-06-10T05:16:56;99297.38;;;23.41
74321;BMP280;62738;45.772;4.804;2023-06-10T05:19:22;99304.84;;;23.28
74321;BMP280;62738;45.772;4.804;2023-06-10T05:21:50;99300.13;;;23.37
74321;BMP280;62738;45.772;4.804;2023-06-10T05:24:16;99299.88;;;23.27
74321;BMP280;62738;45.772;4.804;2023-06-10T05:26:43;99302.63;;;23.25
74321;BMP280;62738;45.772;4.804;2023-06-10T05:29:10;99299.28;;;23.32
74321;BMP280;62738;45.772;4.804;2023-06-10T05:31:37;99301.81;;;23.50
74321;BMP280;62738;45.772;4.804;2023-06-10T05:34:07;99299.59;;;23.44
74321;BMP280;62738;45.772;4.804;2023-06-10T05:36:33;99298.94;;;23.48
74321;BMP280;62738;45.772;4.804;2023-06-10T05:39:00;99300.41;;;23.49
74321;BMP280;62738;45.772;4.804;2023-06-10T05:41:27;99301.28;;;23.87
74321;BMP280;62738;45.772;4.804;2023-06-10T05:43:53;99298.00;;;23.67
74321;BMP280;62738;45.772;4.804;2023-06-10T05:46:21;99294.34;;;23.94
74321;BMP280;62738;45.772;4.804;2023-06-10T05:48:48;99302.97;;;24.00
74321;BMP280;62738;45.772;4.804;2023-06-10T05:51:15;99288.88;;;24.02
74321;BMP280;62738;45.772;4.804;2023-06-10T05:53:41;99300.34;;;24.11
74321;BMP280;62738;45.772;4.804;2023-06-10T05:56:08;99306.63;;;24.05
74321;BMP280;62738;45.772;4.804;2023-06-10T05:58:35;99302.59;;;24.16
74321;BMP280;62738;45.772;4.804;2023-06-10T06:01:01;99296.69;;;24.40
74321;BMP280;62738;45.772;4.804;2023-06-10T06:03:28;99304.00;;;24.51
74321;BMP280;62738;45.772;4.804;2023-06-10T06:05:55;99306.38;;;24.27
74321;BMP280;62738;45.772;4.804;2023-06-10T06:08:22;99300.72;;;24.29
74321;BMP280;62738;45.772;4.804;2023-06-10T06:10:49;99296.97;;;24.54
74321;BMP280;62738;45.772;4.804;2023-06-10T06:13:16;99308.09;;;24.80
74321;BMP280;62738;45.772;4.804;2023-06-10T06:15:43;99310.19;;;24.77
74321;BMP280;62738;45.772;4.804;2023-06-10T06:18:09;99319.47;;;24.82
74321;BMP280;62738;45.772;4.804;2023-06-10T06:20:36;99307.88;;;25.07
74321;BMP280;62738;45.772;4.804;2023-06-10T06:23:03;99316.72;;;25.28
74321;BMP280;62738;45.772;4.804;2023-06-10T06:25:29;99317.63;;;25.40
74321;BMP280;62738;45.772;4.804;2023-06-10T06:27:56;99324.03;;;25.41
74321;BMP280;62738;45.772;4.804;2023-06-10T06:30:22;99327.13;;;25.57
74321;BMP280;62738;45.772;4.804;2023-06-10T06:32:49;99324.13;;;25.49
74321;BMP280;62738;45.772;4.804;2023-06-10T06:35:16;99320.28;;;25.76
74321;BMP280;62738;45.772;4.804;2023-06-10T06:37:43;99319.53;;;26.28
74321;BMP280;62738;45.772;4.804;2023-06-10T06:40:10;99325.38;;;26.42
74321;BMP280;62738;45.772;4.804;2023-06-10T06:42:36;99329.47;;;26.95
74321;BMP280;62738;45.772;4.804;2023-06-10T06:45:03;99328.56;;;26.74
74321;BMP280;62738;45.772;4.804;2023-06-10T06:47:30;99326.03;;;26.38
74321;BMP280;62738;45.772;4.804;2023-06-10T06:49:57;99332.44;;;26.39
74321;BMP280;62738;45.772;4.804;2023-06-10T06:52:23;99333.16;;;26.37
74321;BMP280;62738;45.772;4.804;2023-06-10T06:54:50;99336.50;;;26.19
74321;BMP280;62738;45.772;4.804;2023-06-10T06:57:17;99324.78;;;26.51
74321;BMP280;62738;45.772;4.804;2023-06-10T06:59:43;99333.16;;;26.37
74321;BMP280;62738;45.772;4.804;2023-06-10T07:02:10;99331.38;;;26.08
74321;BMP280;62738;45.772;4.804;2023-06-10T07:04:37;99329.97;;;25.59
74321;BMP280;62738;45.772;4.804;2023-06-10T07:07:07;99327.41;;;25.77
74321;BMP280;62738;45.772;4.804;2023-06-10T07:09:33;99338.00;;;26.29
74321;BMP280;62738;45.772;4.804;2023-06-10T07:12:00;99344.22;;;26.73
74321;BMP280;62738;45.772;4.804;2023-06-10T07:14:26;99341.59;;;26.95
74321;BMP280;62738;45.772;4.804;2023-06-10T07:16:53;99347.28;;;26.95
74321;BMP280;62738;45.772;4.804;2023-06-10T07:19:20;99342.84;;;26.78
74321;BMP280;62738;45.772;4.804;2023-06-10T07:21:47;99346.72;;;26.43
74321;BMP280;62738;45.772;4.804;2023-06-10T07:24:14;99344.88;;;26.09
74321;BMP280;62738;45.772;4.804;2023-06-10T07:26:41;99341.09;;;26.47
74321;BMP280;62738;45.772;4.804;2023-06-10T07:29:07;99345.69;;;26.80
74321;BMP280;62738;45.772;4.804;2023-06-10T07:31:34;99348.88;;;27.16
74321;BMP280;62738;45.772;4.804;2023-06-10T07:34:01;99339.22;;;27.58
74321;BMP280;62738;45.772;4.804;2023-06-10T07:36:27;99346.78;;;27.23
74321;BMP280;62738;45.772;4.804;2023-06-10T07:38:55;99337.91;;;27.81
74321;BMP280;62738;45.772;4.804;2023-06-10T07:41:23;99345.03;;;27.82
74321;BMP280;62738;45.772;4.804;2023-06-10T07:43:52;99345.16;;;28.06
74321;BMP280;62738;45.772;4.804;2023-06-10T07:46:23;99350.22;;;28.24
74321;BMP280;62738;45.772;4.804;2023-06-10T07:48:51;99343.03;;;28.01
74321;BMP280;62738;45.772;4.804;2023-06-10T07:51:17;99336.44;;;27.72
74321;BMP280;62738;45.772;4.804;2023-06-10T07:53:44;99340.78;;;27.87
74321;BMP280;62738;45.772;4.804;2023-06-10T07:56:11;99333.59;;;27.74
74321;BMP280;62738;45.772;4.804;2023-06-10T07:58:38;99337.84;;;27.67
74321;BMP280;62738;45.772;4.804;2023-06-10T08:01:04;99335.44;;;27.27
74321;BMP280;62738;45.772;4.804;2023-06-10T08:03:31;99331.66;;;27.02
74321;BMP280;62738;45.772;4.804;2023-06-10T08:05:58;99330.53;;;27.35
74321;BMP280;62738;45.772;4.804;2023-06-10T08:08:25;99331.44;;;27.64
74321;BMP280;62738;45.772;4.804;2023-06-10T08:10:52;99330.13;;;27.91
74321;BMP280;62738;45.772;4.804;2023-06-10T08:13:18;99322.25;;;27.82
74321;BMP280;62738;45.772;4.804;2023-06-10T08:15:45;99328.75;;;28.05
74321;BMP280;62738;45.772;4.804;2023-06-10T08:18:14;99326.00;;;28.31
74321;BMP280;62738;45.772;4.804;2023-06-10T08:20:40;99323.09;;;28.13
74321;BMP280;62738;45.772;4.804;2023-06-10T08:23:07;99322.41;;;28.20
74321;BMP280;62738;45.772;4.804;2023-06-10T08:25:34;99316.72;;;28.34
74321;BMP280;62738;45.772;4.804;2023-06-10T08:28:00;99328.88;;;28.39
74321;BMP280;62738;45.772;4.804;2023-06-10T08:30:27;99322.34;;;28.06
74321;BMP280;62738;45.772;4.804;2023-06-10T08:32:54;99323.25;;;28.79
74321;BMP280;62738;45.772;4.804;2023-06-10T08:35:22;99321.09;;;29.06
74321;BMP280;62738;45.772;4.804;2023-06-10T08:37:48;99320.34;;;29.38
74321;BMP280;62738;45.772;4.804;2023-06-10T08:40:15;99314.63;;;29.50
74321;BMP280;62738;45.772;4.804;2023-06-10T08:42:54;99312.34;;;29.81
74321;BMP280;62738;45.772;4.804;2023-06-10T08:45:28;99304.41;;;29.95
74321;BMP280;62738;45.772;4.804;2023-06-10T08:47:57;99307.97;;;29.98
74321;BMP280;62738;45.772;4.804;2023-06-10T08:50:26;99317.34;;;29.84
74321;BMP280;62738;45.772;4.804;2023-06-10T08:52:57;99313.84;;;29.57
74321;BMP280;62738;45.772;4.804;2023-06-10T08:55:32;99316.69;;;29.69
74321;BMP280;62738;45.772;4.804;2023-06-10T08:58:00;99316.06;;;29.35
74321;BMP280;62738;45.772;4.804;2023-06-10T09:00:28;99316.66;;;29.75
74321;BMP280;62738;45.772;4.804;2023-06-10T09:02:56;99312.91;;;30.11
74321;BMP280;62738;45.772;4.804;2023-06-10T09:05:24;99316.97;;;30.49
74321;BMP280;62738;45.772;4.804;2023-06-10T09:07:53;99311.59;;;30.95
74321;BMP280;62738;45.772;4.804;2023-06-10T09:10:20;99306.38;;;31.14
74321;BMP280;62738;45.772;4.804;2023-06-10T09:12:47;99311.34;;;31.83
74321;BMP280;62738;45.772;4.804;2023-06-10T09:15:14;99313.78;;;31.60
74321;BMP280;62738;45.772;4.804;2023-06-10T09:17:41;99317.44;;;32.07
74321;BMP280;62738;45.772;4.804;2023-06-10T09:20:08;99309.00;;;31.97
74321;BMP280;62738;45.772;4.804;2023-06-10T09:22:37;99317.03;;;32.38
74321;BMP280;62738;45.772;4.804;2023-06-10T09:25:08;99308.78;;;32.13
74321;BMP280;62738;45.772;4.804;2023-06-10T09:27:52;99312.31;;;32.61
74321;BMP280;62738;45.772;4.804;2023-06-10T09:30:32;99306.72;;;32.53
74321;BMP280;62738;45.772;4.804;2023-06-10T09:33:10;99314.38;;;31.68
74321;BMP280;62738;45.772;4.804;2023-06-10T09:35:45;99311.81;;;30.71
74321;BMP280;62738;45.772;4.804;2023-06-10T09:38:19;99312.16;;;30.17
74321;BMP280;62738;45.772;4.804;2023-06-10T09:40:51;99314.25;;;30.28
74321;BMP280;62738;45.772;4.804;2023-06-10T09:43:18;99310.13;;;30.01
74321;BMP280;62738;45.772;4.804;2023-06-10T09:45:48;99306.66;;;29.78
74321;BMP280;62738;45.772;4.804;2023-06-10T09:48:14;99306.69;;;29.70
74321;BMP280;62738;45.772;4.804;2023-06-10T09:50:42;99312.88;;;30.21
74321;BMP280;62738;45.772;4.804;2023-06-10T09:53:11;99300.84;;;31.61
74321;BMP280;62738;45.772;4.804;2023-06-10T09:55:38;99299.72;;;32.42
74321;BMP280;62738;45.772;4.804;2023-06-10T09:58:05;99293.50;;;32.27
74321;BMP280;62738;45.772;4.804;2023-06-10T10:00:36;99296.38;;;31.74
74321;BMP280;62738;45.772;4.804;2023-06-10T10:03:02;99300.94;;;30.86
74321;BMP280;62738;45.772;4.804;2023-06-10T10:05:30;99308.38;;;30.53
74321;BMP280;62738;45.772;4.804;2023-06-10T10:07:57;99298.47;;;30.33
74321;BMP280;62738;45.772;4.804;2023-06-10T10:10:23;99281.47;;;31.00
74321;BMP280;62738;45.772;4.804;2023-06-10T10:12:54;99289.69;;;30.64
74321;BMP280;62738;45.772;4.804;2023-06-10T10:15:24;99303.28;;;30.63
74321;BMP280;62738;45.772;4.804;2023-06-10T10:18:10;99301.91;;;30.54
74321;BMP280;62738;45.772;4.804;2023-06-10T10:20:50;99294.25;;;31.10
74321;BMP280;62738;45.772;4.804;2023-06-10T10:23:24;99302.34;;;30.87
74321;BMP280;62738;45.772;4.804;2023-06-10T10:25:54;99296.13;;;30.64
74321;BMP280;62738;45.772;4.804;2023-06-10T10:28:24;99308.16;;;30.81
74321;BMP280;62738;45.772;4.804;2023-06-10T10:30:58;99307.25;;;31.02
74321;BMP280;62738;45.772;4.804;2023-06-10T10:33:39;99303.75;;;30.90
74321;BMP280;62738;45.772;4.804;2023-06-10T10:36:07;99297.31;;;30.91
74321;BMP280;62738;45.772;4.804;2023-06-10T10:38:35;99300.44;;;30.59
74321;BMP280;62738;45.772;4.804;2023-06-10T10:41:02;99297.03;;;30.38
74321;BMP280;62738;45.772;4.804;2023-06-10T10:43:30;99296.06;;;30.68
74321;BMP280;62738;45.772;4.804;2023-06-10T10:45:59;99300.66;;;31.14
74321;BMP280;62738;45.772;4.804;2023-06-10T10:48:27;99300.09;;;31.64
74321;BMP280;62738;45.772;4.804;2023-06-10T10:50:59;99290.22;;;32.04
74321;BMP280;62738;45.772;4.804;2023-06-10T10:53:26;99291.47;;;32.17
74321;BMP280;62738;45.772;4.804;2023-06-10T10:56:05;99289.63;;;32.45
74321;BMP280;62738;45.772;4.804;2023-06-10T10:58:33;99297.50;;;32.89
74321;BMP280;62738;45.772;4.804;2023-06-10T11:00:59;99289.66;;;33.22
74321;BMP280;62738;45.772;4.804;2023-06-10T11:03:42;99292.53;;;33.22
74321;BMP280;62738;45.772;4.804;2023-06-10T11:06:14;99295.75;;;33.76
74321;BMP280;62738;45.772;4.804;2023-06-10T11:11:48;99292.31;;;34.30
74321;BMP280;62738;45.772;4.804;2023-06-10T11:14:26;99292.31;;;33.69
74321;BMP280;62738;45.772;4.804;2023-06-10T11:16:57;99286.75;;;33.59
74321;BMP280;62738;45.772;4.804;2023-06-10T11:19:35;99287.38;;;33.63
74321;BMP280;62738;45.772;4.804;2023-06-10T11:22:05;99284.75;;;33.17
74321;BMP280;62738;45.772;4.804;2023-06-10T11:24:32;99285.31;;;33.58
74321;BMP280;62738;45.772;4.804;2023-06-10T11:27:18;99277.69;;;33.46
74321;BMP280;62738;45.772;4.804;2023-06-10T11:30:18;99285.19;;;34.27
74321;BMP280;62738;45.772;4.804;2023-06-10T11:32:50;99282.94;;;34.32
74321;BMP280;62738;45.772;4.804;2023-06-10T11:35:19;99276.19;;;33.49
74321;BMP280;62738;45.772;4.804;2023-06-10T11:37:46;99273.63;;;32.58
74321;BMP280;62738;45.772;4.804;2023-06-10T11:40:13;99270.19;;;31.49
74321;BMP280;62738;45.772;4.804;2023-06-10T11:42:40;99276.56;;;30.89
74321;BMP280;62738;45.772;4.804;2023-06-10T11:45:08;99276.97;;;30.40
74321;BMP280;62738;45.772;4.804;2023-06-10T11:47:36;99273.00;;;29.85
74321;BMP280;62738;45.772;4.804;2023-06-10T11:50:03;99283.88;;;29.46
74321;BMP280;62738;45.772;4.804;2023-06-10T11:52:30;99283.91;;;29.30
74321;BMP280;62738;45.772;4.804;2023-06-10T11:55:05;99281.03;;;29.42
74321;BMP280;62738;45.772;4.804;2023-06-10T11:57:35;99273.16;;;29.55
74321;BMP280;62738;45.772;4.804;2023-06-10T12:00:06;99278.09;;;29.56
74321;BMP280;62738;45.772;4.804;2023-06-10T12:02:33;99264.00;;;28.76
74321;BMP280;62738;45.772;4.804;2023-06-10T12:05:12;99266.13;;;28.57
74321;BMP280;62738;45.772;4.804;2023-06-10T12:07:39;99271.13;;;28.71
74321;BMP280;62738;45.772;4.804;2023-06-10T12:10:06;99273.25;;;28.72
74321;BMP280;62738;45.772;4.804;2023-06-10T12:12:52;99273.25;;;28.86
74321;BMP280;62738;45.772;4.804;2023-06-10T12:15:25;99272.53;;;28.98
74321;BMP280;62738;45.772;4.804;2023-06-10T12:17:52;99269.53;;;29.56
74321;BMP280;62738;45.772;4.804;2023-06-10T12:20:32;99272.38;;;29.56
74321;BMP280;62738;45.772;4.804;2023-06-10T12:23:07;99266.81;;;29.18
74321;BMP280;62738;45.772;4.804;2023-06-10T12:25:35;99268.94;;;29.20
74321;BMP280;62738;45.772;4.804;2023-06-10T12:28:05;99268.84;;;29.56
74321;BMP280;62738;45.772;4.804;2023-06-10T12:30:37;99261.03;;;29.40
74321;BMP280;62738;45.772;4.804;2023-06-10T12:33:03;99256.75;;;29.41
74321;BMP280;62738;45.772;4.804;2023-06-10T12:35:30;99259.31;;;30.10
74321;BMP280;62738;45.772;4.804;2023-06-10T12:38:04;99252.69;;;30.35
74321;BMP280;62738;45.772;4.804;2023-06-10T12:40:34;99254.47;;;30.77
74321;BMP280;62738;45.772;4.804;2023-06-10T12:43:02;99255.50;;;31.19
74321;BMP280;62738;45.772;4.804;2023-06-10T12:45:37;99254.47;;;31.42
74321;BMP280;62738;45.772;4.804;2023-06-10T12:48:10;99252.75;;;31.67
74321;BMP280;62738;45.772;4.804;2023-06-10T12:50:40;99249.38;;;32.02
74321;BMP280;62738;45.772;4.804;2023-06-10T12:53:08;99241.56;;;32.41
74321;BMP280;62738;45.772;4.804;2023-06-10T12:55:35;99244.41;;;31.98
74321;BMP280;62738;45.772;4.804;2023-06-10T12:58:02;99238.50;;;32.10
74321;BMP280;62738;45.772;4.804;2023-06-10T13:00:30;99244.56;;;32.35
74321;BMP280;62738;45.772;4.804;2023-06-10T13:02:59;99241.00;;;32.32
74321;BMP280;62738;45.772;4.804;2023-06-10T13:05:26;99233.63;;;32.46
74321;BMP280;62738;45.772;4.804;2023-06-10T13:07:54;99232.00;;;32.14
74321;BMP280;62738;45.772;4.804;2023-06-10T13:10:21;99235.38;;;32.26
74321;BMP280;62738;45.772;4.804;2023-06-10T13:12:52;99233.81;;;32.33
74321;BMP280;62738;45.772;4.804;2023-06-10T13:15:19;99225.06;;;32.42
74321;BMP280;62738;45.772;4.804;2023-06-10T13:17:46;99240.13;;;32.42
74321;BMP280;62738;45.772;4.804;2023-06-10T13:20:18;99231.81;;;32.65
74321;BMP280;62738;45.772;4.804;2023-06-10T13:22:45;99238.81;;;32.76
74321;BMP280;62738;45.772;4.804;2023-06-10T13:25:11;99236.47;;;32.86
74321;BMP280;62738;45.772;4.804;2023-06-10T13:27:39;99232.19;;;32.00
74321;BMP280;62738;45.772;4.804;2023-06-10T13:30:07;99242.66;;;32.19
74321;BMP280;62738;45.772;4.804;2023-06-10T13:32:34;99236.47;;;32.48
74321;BMP280;62738;45.772;4.804;2023-06-10T13:35:01;99227.22;;;32.82
74321;BMP280;62738;45.772;4.804;2023-06-10T13:37:30;99227.88;;;32.46
74321;BMP280;62738;45.772;4.804;2023-06-10T13:39:57;99233.06;;;32.76
74321;BMP280;62738;45.772;4.804;2023-06-10T13:42:23;99222.97;;;32.79
74321;BMP280;62738;45.772;4.804;2023-06-10T13:44:52;99223.03;;;32.75
74321;BMP280;62738;45.772;4.804;2023-06-10T13:47:19;99223.03;;;33.12
74321;BMP280;62738;45.772;4.804;2023-06-10T13:49:47;99218.88;;;33.04
74321;BMP280;62738;45.772;4.804;2023-06-10T13:52:14;99219.06;;;33.29
74321;BMP280;62738;45.772;4.804;2023-06-10T13:54:40;99226.41;;;33.55
74321;BMP280;62738;45.772;4.804;2023-06-10T13:57:07;99211.16;;;32.95
74321;BMP280;62738;45.772;4.804;2023-06-10T13:59:36;99220.94;;;33.43
74321;BMP280;62738;45.772;4.804;2023-06-10T14:02:03;99222.44;;;33.72
74321;BMP280;62738;45.772;4.804;2023-06-10T14:04:30;99207.75;;;33.54
74321;BMP280;62738;45.772;4.804;2023-06-10T14:06:57;99209.88;;;33.86
74321;BMP280;62738;45.772;4.804;2023-06-10T14:09:24;99218.06;;;34.35
74321;BMP280;62738;45.772;4.804;2023-06-10T14:11:50;99213.56;;;34.69
74321;BMP280;62738;45.772;4.804;2023-06-10T14:14:17;99214.31;;;34.67
74321;BMP280;62738;45.772;4.804;2023-06-10T14:16:44;99206.47;;;34.64
74321;BMP280;62738;45.772;4.804;2023-06-10T14:19:11;99206.88;;;34.47
74321;BMP280;62738;45.772;4.804;2023-06-10T14:21:38;99210.91;;;34.03